createdAt,value
2023-02-09T00:01:05.724Z,54.10
2023-02-09T00:03:32.847Z,53.90
2023-02-09T00:06:01.547Z,53.90
2023-02-09T00:08:29.986Z,55.10
2023-02-09T00:10:58.055Z,52.80
2023-02-09T00:13:25.210Z,39.50
2023-02-09T00:15:56.547Z,51.90
2023-02-09T00:18:25.956Z,51.20
2023-02-09T00:21:00.211Z,52.10
2023-02-09T00:23:28.574Z,48.40
2023-02-09T00:26:01.851Z,52.60
2023-02-09T00:28:29.071Z,51.40
2023-02-09T00:30:56.000Z,50.20
2023-02-09T00:33:22.892Z,52.40
2023-02-09T00:35:49.718Z,53.90
2023-02-09T00:38:16.595Z,53.30
2023-02-09T00:40:44.044Z,50.20
2023-02-09T00:43:11.273Z,55.30
2023-02-09T00:45:38.440Z,55.40
2023-02-09T00:48:05.930Z,52.50
2023-02-09T00:50:32.901Z,52.40
2023-02-09T00:52:59.717Z,51.50
2023-02-09T00:55:26.834Z,50.80
2023-02-09T00:57:54.064Z,48.40
2023-02-09T01:00:21.227Z,50.00
2023-02-09T01:02:49.092Z,52.50
2023-02-09T01:05:16.270Z,49.60
2023-02-09T01:07:45.052Z,50.40
2023-02-09T01:10:12.046Z,50.20
2023-02-09T01:12:40.322Z,48.70
2023-02-09T01:15:07.825Z,49.10
2023-02-09T01:17:46.587Z,49.00
2023-02-09T01:20:13.695Z,47.90
2023-02-09T01:22:42.072Z,49.50
2023-02-09T01:25:09.303Z,47.60
2023-02-09T01:27:36.104Z,48.00
2023-02-09T01:30:03.560Z,47.60
2023-02-09T01:32:32.240Z,45.20
2023-02-09T01:34:59.552Z,47.40
2023-02-09T01:37:26.431Z,45.90
2023-02-09T01:39:53.320Z,45.00
2023-02-09T01:42:20.273Z,47.60
2023-02-09T01:45:32.268Z,47.50
2023-02-09T01:48:03.213Z,45.90
2023-02-09T01:50:33.128Z,45.40
2023-02-09T01:53:00.217Z,47.40
2023-02-09T01:55:28.515Z,50.00
2023-02-09T01:57:58.350Z,46.90
2023-02-09T02:00:25.258Z,45.50
2023-02-09T02:02:55.205Z,44.40
2023-02-09T02:05:24.220Z,47.30
2023-02-09T02:07:53.681Z,45.50
2023-02-09T02:10:20.795Z,44.80
2023-02-09T02:12:48.121Z,43.90
2023-02-09T02:15:15.232Z,46.80
2023-02-09T02:18:10.226Z,44.30
2023-02-09T02:20:59.404Z,43.70
2023-02-09T02:24:18.105Z,44.10
2023-02-09T02:26:50.780Z,44.40
2023-02-09T02:29:46.623Z,44.00
2023-02-09T02:32:23.734Z,41.70
2023-02-09T02:34:57.365Z,42.40
2023-02-09T02:37:42.266Z,42.30
2023-02-09T02:40:37.404Z,41.50
2023-02-09T02:45:35.962Z,42.20
2023-02-09T02:48:21.445Z,41.30
2023-02-09T02:51:01.139Z,41.80
2023-02-09T02:53:29.423Z,42.90
2023-02-09T02:55:59.562Z,39.80
2023-02-09T02:58:26.532Z,41.60
2023-02-09T03:00:55.026Z,44.00
2023-02-09T03:03:24.512Z,41.70
2023-02-09T03:05:51.612Z,44.50
2023-02-09T03:08:18.424Z,42.10
2023-02-09T03:10:45.632Z,42.60
2023-02-09T03:13:19.960Z,40.70
2023-02-09T03:16:05.350Z,43.40
2023-02-09T03:18:37.669Z,44.80
2023-02-09T03:21:31.483Z,46.00
2023-02-09T03:24:11.313Z,44.60
2023-02-09T03:26:45.986Z,41.80
2023-02-09T03:29:13.094Z,44.60
2023-02-09T03:31:40.023Z,38.20
2023-02-09T03:34:06.819Z,40.30
2023-02-09T03:36:36.830Z,40.30
2023-02-09T03:39:03.844Z,39.30
2023-02-09T03:41:30.768Z,39.00
2023-02-09T03:44:15.990Z,36.40
2023-02-09T03:46:43.055Z,35.30
2023-02-09T03:49:10.424Z,34.60
2023-02-09T03:51:37.299Z,34.00
2023-02-09T03:54:04.098Z,33.20
2023-02-09T03:56:30.930Z,32.20
2023-02-09T03:58:57.787Z,34.90
2023-02-09T04:01:24.815Z,31.60
2023-02-09T04:03:51.751Z,32.00
2023-02-09T04:06:18.548Z,30.20
2023-02-09T04:08:46.635Z,29.70
2023-02-09T04:11:13.477Z,28.80
2023-02-09T04:13:41.505Z,29.80
2023-02-09T04:16:08.582Z,28.00
2023-02-09T04:18:35.513Z,29.10
2023-02-09T04:21:02.361Z,28.30
2023-02-09T04:23:29.619Z,28.50
2023-02-09T04:25:56.401Z,28.20
2023-02-09T04:28:23.657Z,27.10
2023-02-09T04:30:54.364Z,28.20
2023-02-09T04:33:22.311Z,28.10
2023-02-09T04:35:49.417Z,28.30
2023-02-09T04:38:18.862Z,27.30
2023-02-09T04:40:47.099Z,26.20
2023-02-09T04:43:14.306Z,27.70
2023-02-09T04:45:41.350Z,27.00
2023-02-09T04:48:11.107Z,25.70
2023-02-09T04:50:37.921Z,25.30
2023-02-09T04:53:04.825Z,29.20
2023-02-09T04:55:31.788Z,29.80
2023-02-09T04:58:17.671Z,31.70
2023-02-09T05:00:45.002Z,28.80
2023-02-09T05:03:12.954Z,28.50
2023-02-09T05:05:40.747Z,25.70
2023-02-09T05:08:08.147Z,25.60
2023-02-09T05:10:35.078Z,25.20
2023-02-09T05:13:02.148Z,23.60
2023-02-09T05:15:29.161Z,25.60
2023-02-09T05:17:56.163Z,22.80
2023-02-09T05:20:23.061Z,25.30
2023-02-09T05:22:51.644Z,24.20
2023-02-09T05:25:18.560Z,22.50
2023-02-09T05:27:46.321Z,22.90
2023-02-09T05:30:15.891Z,21.40
2023-02-09T05:32:43.109Z,21.00
2023-02-09T05:35:10.202Z,23.40
2023-02-09T05:37:37.131Z,21.90
2023-02-09T05:40:04.447Z,24.60
2023-02-09T05:42:33.068Z,25.10
2023-02-09T05:45:00.902Z,26.10
2023-02-09T05:47:27.886Z,25.20
2023-02-09T05:49:54.898Z,25.80
2023-02-09T05:52:22.868Z,25.40
2023-02-09T05:54:49.836Z,24.20
2023-02-09T05:57:17.217Z,24.30
2023-02-09T05:59:44.136Z,24.60
2023-02-09T06:02:11.628Z,25.90
2023-02-09T06:04:38.580Z,25.00
2023-02-09T06:07:05.707Z,26.30
2023-02-09T06:09:32.883Z,29.10
2023-02-09T06:12:00.675Z,32.70
2023-02-09T06:14:27.605Z,29.30
2023-02-09T06:16:55.834Z,28.00
2023-02-09T06:19:22.977Z,28.80
2023-02-09T06:21:49.873Z,28.40
2023-02-09T06:24:16.819Z,27.50
2023-02-09T06:26:43.600Z,27.10
2023-02-09T06:29:10.755Z,26.00
2023-02-09T06:31:37.854Z,26.60
2023-02-09T06:34:05.251Z,26.30
2023-02-09T06:36:32.346Z,25.80
2023-02-09T06:38:59.871Z,26.00
2023-02-09T06:41:27.643Z,26.40
2023-02-09T06:43:54.933Z,26.30
2023-02-09T06:46:21.747Z,28.60
2023-02-09T06:48:48.841Z,32.10
2023-02-09T06:51:16.522Z,32.50
2023-02-09T06:53:43.508Z,36.70
2023-02-09T06:56:10.973Z,38.10
2023-02-09T06:58:38.078Z,34.60
2023-02-09T07:01:09.904Z,45.20
2023-02-09T07:03:37.186Z,49.20
2023-02-09T07:06:09.362Z,44.90
2023-02-09T07:08:36.642Z,36.50
2023-02-09T07:11:06.000Z,41.60
2023-02-09T07:13:33.299Z,52.30
2023-02-09T07:16:02.775Z,50.50
2023-02-09T07:18:32.825Z,42.70
2023-02-09T07:21:04.806Z,39.70
2023-02-09T07:23:31.921Z,31.30
2023-02-09T07:26:04.077Z,29.60
2023-02-09T07:28:33.239Z,27.40
2023-02-09T07:31:05.798Z,27.80
2023-02-09T07:36:06.108Z,27.70
2023-02-09T07:38:34.258Z,26.40
2023-02-09T07:41:02.302Z,29.10
2023-02-09T07:43:29.253Z,29.70
2023-02-09T07:46:00.572Z,31.50
2023-02-09T07:48:27.710Z,33.40
2023-02-09T07:50:54.609Z,35.70
2023-02-09T07:53:21.544Z,35.10
2023-02-09T07:55:48.565Z,36.50
2023-02-09T07:58:17.678Z,37.50
2023-02-09T08:00:53.861Z,38.80
2023-02-09T08:03:22.076Z,38.30
2023-02-09T08:05:58.478Z,37.30
2023-02-09T08:08:26.258Z,35.70
2023-02-09T08:10:54.334Z,36.10
2023-02-09T08:13:22.457Z,36.60
2023-02-09T08:15:52.111Z,36.60
2023-02-09T08:18:21.461Z,34.70
2023-02-09T08:20:50.108Z,35.40
2023-02-09T08:23:23.334Z,35.40
2023-02-09T08:25:51.003Z,35.30
2023-02-09T08:28:19.311Z,34.10
2023-02-09T08:30:47.178Z,31.80
2023-02-09T08:33:14.689Z,34.70
2023-02-09T08:35:42.336Z,33.00
2023-02-09T08:38:09.396Z,31.80
2023-02-09T08:40:40.756Z,29.90
2023-02-09T08:43:08.055Z,31.10
2023-02-09T08:45:36.614Z,31.40
2023-02-09T08:48:05.920Z,31.30
2023-02-09T08:50:33.801Z,29.70
2023-02-09T08:53:02.406Z,31.40
2023-02-09T08:55:31.483Z,30.50
2023-02-09T08:57:58.633Z,29.70
2023-02-09T09:00:26.408Z,29.30
2023-02-09T09:02:54.553Z,30.40
2023-02-09T09:05:22.418Z,32.60
2023-02-09T09:07:51.416Z,29.70
2023-02-09T09:10:19.438Z,25.90
2023-02-09T09:12:47.311Z,26.30
2023-02-09T09:15:14.171Z,26.60
2023-02-09T09:17:42.721Z,26.60
2023-02-09T09:20:10.158Z,27.90
2023-02-09T09:22:39.378Z,26.10
2023-02-09T09:25:06.632Z,28.90
2023-02-09T09:27:34.473Z,28.20
2023-02-09T09:30:02.762Z,27.50
2023-02-09T09:32:31.763Z,27.70
2023-02-09T09:34:58.816Z,27.10
2023-02-09T09:37:25.937Z,29.00
2023-02-09T09:39:53.215Z,29.50
2023-02-09T09:42:23.175Z,29.70
2023-02-09T09:44:50.351Z,28.50
2023-02-09T09:47:22.392Z,27.80
2023-02-09T09:49:49.263Z,27.40
2023-02-09T09:52:19.304Z,29.00
2023-02-09T09:54:46.158Z,27.70
2023-02-09T09:57:20.225Z,28.60
2023-02-09T09:59:47.879Z,29.10
2023-02-09T10:02:29.592Z,27.50
2023-02-09T10:05:05.097Z,28.20
2023-02-09T10:07:32.475Z,28.20
2023-02-09T10:10:05.620Z,29.70
2023-02-09T10:12:38.641Z,29.30
2023-02-09T10:15:35.843Z,28.00
2023-02-09T10:18:11.183Z,28.40
2023-02-09T10:20:56.271Z,28.10
2023-02-09T10:23:47.654Z,25.70
2023-02-09T10:26:23.364Z,28.40
2023-02-09T10:28:56.040Z,27.80
2023-02-09T10:31:35.612Z,24.80
2023-02-09T10:34:30.386Z,25.00
2023-02-09T10:37:19.976Z,25.80
2023-02-09T10:40:00.720Z,26.20
2023-02-09T10:42:30.274Z,25.20
2023-02-09T10:45:04.958Z,25.10
2023-02-09T10:47:32.223Z,24.70
2023-02-09T10:50:00.720Z,26.30
2023-02-09T10:52:35.522Z,27.00
2023-02-09T10:55:30.214Z,27.00
2023-02-09T10:58:09.565Z,27.20
2023-02-09T11:00:58.115Z,26.10
2023-02-09T11:03:25.174Z,25.70
2023-02-09T11:06:00.945Z,27.40
2023-02-09T11:08:42.408Z,23.60
2023-02-09T11:11:21.409Z,22.60
2023-02-09T11:13:48.329Z,20.80
2023-02-09T11:16:33.540Z,20.40
2023-02-09T11:19:13.896Z,18.80
2023-02-09T11:21:50.015Z,19.20
2023-02-09T11:24:26.412Z,17.80
2023-02-09T11:27:04.087Z,17.00
2023-02-09T11:29:40.932Z,17.30
2023-02-09T11:32:20.337Z,17.50
2023-02-09T11:35:15.029Z,15.80
2023-02-09T11:38:05.135Z,15.00
2023-02-09T11:40:39.748Z,14.40
2023-02-09T11:43:09.763Z,14.70
2023-02-09T11:46:03.746Z,14.30
2023-02-09T11:48:32.574Z,13.30
2023-02-09T11:51:13.587Z,14.70
2023-02-09T11:53:56.709Z,14.90
2023-02-09T11:56:24.331Z,9.90
2023-02-09T11:58:57.187Z,15.00
2023-02-09T12:01:43.862Z,14.80
2023-02-09T12:04:16.403Z,15.20
2023-02-09T12:09:18.209Z,15.50
2023-02-09T12:12:15.267Z,16.80
2023-02-09T12:14:53.487Z,16.50
2023-02-09T12:17:29.274Z,16.60
2023-02-09T12:19:59.982Z,16.60
2023-02-09T12:22:33.919Z,16.80
2023-02-09T12:25:36.045Z,17.20
2023-02-09T12:28:10.528Z,15.50
2023-02-09T12:30:40.795Z,17.70
2023-02-09T12:33:23.054Z,16.40
2023-02-09T12:36:27.830Z,16.30
2023-02-09T12:39:05.515Z,17.10
2023-02-09T12:41:33.469Z,17.70
2023-02-09T12:44:09.820Z,20.00
2023-02-09T12:46:55.073Z,18.30
2023-02-09T12:49:33.633Z,17.80
2023-02-09T12:52:00.449Z,18.10
2023-02-09T12:54:36.254Z,18.00
2023-02-09T12:57:15.416Z,18.10
2023-02-09T13:00:03.696Z,17.20
2023-02-09T13:02:51.724Z,17.80
2023-02-09T13:05:23.082Z,17.60
2023-02-09T13:08:12.665Z,16.80
2023-02-09T13:11:10.724Z,16.90
2023-02-09T13:13:41.317Z,18.00
2023-02-09T13:16:29.214Z,18.00
2023-02-09T13:19:06.570Z,17.90
2023-02-09T13:21:39.079Z,15.20
2023-02-09T13:24:10.096Z,16.90
2023-02-09T13:26:48.335Z,19.10
2023-02-09T13:29:22.010Z,19.00
2023-02-09T13:32:14.299Z,19.00
2023-02-09T13:34:41.812Z,16.80
2023-02-09T13:37:47.156Z,17.60
2023-02-09T13:40:23.067Z,15.80
2023-02-09T13:43:03.023Z,17.70
2023-02-09T13:45:30.851Z,16.50
2023-02-09T13:48:03.703Z,17.10
2023-02-09T13:50:31.407Z,16.40
2023-02-09T13:53:09.158Z,15.50
2023-02-09T13:55:40.252Z,16.30
2023-02-09T13:58:07.843Z,16.70
2023-02-09T14:00:40.852Z,16.70
2023-02-09T14:03:16.309Z,16.50
2023-02-09T14:05:46.559Z,16.70
2023-02-09T14:08:15.631Z,15.60
2023-02-09T14:10:45.793Z,17.10
2023-02-09T14:13:19.910Z,16.90
2023-02-09T14:16:06.702Z,17.00
2023-02-09T14:19:41.810Z,16.10
2023-02-09T14:22:43.833Z,15.10
2023-02-09T14:25:14.199Z,15.50
2023-02-09T14:27:41.171Z,16.50
2023-02-09T14:30:24.974Z,16.40
2023-02-09T14:32:56.214Z,16.70
2023-02-09T14:35:30.821Z,17.10
2023-02-09T14:38:01.234Z,16.50
2023-02-09T14:40:29.506Z,17.50
2023-02-09T14:43:02.582Z,17.10
2023-02-09T14:45:35.539Z,15.80
2023-02-09T14:48:18.169Z,16.90
2023-02-09T14:50:46.189Z,17.00
2023-02-09T14:53:14.317Z,14.90
2023-02-09T14:55:41.722Z,14.80
2023-02-09T14:58:22.709Z,15.20
2023-02-09T15:00:50.405Z,17.10
2023-02-09T15:03:17.559Z,17.50
2023-02-09T15:05:46.693Z,16.90
2023-02-09T15:08:22.231Z,17.80
2023-02-09T15:10:52.794Z,19.70
2023-02-09T15:13:20.867Z,22.10
2023-02-09T15:15:53.035Z,21.10
2023-02-09T15:18:25.086Z,21.90
2023-02-09T15:20:52.188Z,21.70
2023-02-09T15:23:19.770Z,21.10
2023-02-09T15:25:47.534Z,23.20
2023-02-09T15:28:31.752Z,24.40
2023-02-09T15:30:58.779Z,23.40
2023-02-09T15:33:26.277Z,27.50
2023-02-09T15:35:53.654Z,32.20
2023-02-09T15:38:20.502Z,31.40
2023-02-09T15:41:08.120Z,34.10
2023-02-09T15:43:53.710Z,37.90
2023-02-09T15:46:40.858Z,47.60
2023-02-09T15:49:07.851Z,39.90
2023-02-09T15:51:36.615Z,37.40
2023-02-09T15:54:11.580Z,33.90
2023-02-09T15:56:38.381Z,32.40
2023-02-09T15:59:05.498Z,30.10
2023-02-09T16:01:33.933Z,29.50
2023-02-09T16:04:13.500Z,25.40
2023-02-09T16:06:51.971Z,30.80
2023-02-09T16:09:27.051Z,38.60
2023-02-09T16:11:55.947Z,55.10
2023-02-09T16:14:24.814Z,50.00
2023-02-09T16:16:52.140Z,38.70
2023-02-09T16:19:20.652Z,30.70
2023-02-09T16:21:56.778Z,31.70
2023-02-09T16:24:33.492Z,34.30
2023-02-09T16:27:01.371Z,41.10
2023-02-09T16:29:28.307Z,40.80
2023-02-09T16:31:55.287Z,39.00
2023-02-09T16:34:25.007Z,38.10
2023-02-09T16:36:52.096Z,40.10
2023-02-09T16:39:20.505Z,40.80
2023-02-09T16:41:47.641Z,47.60
2023-02-09T16:44:23.050Z,48.30
2023-02-09T16:46:54.723Z,49.80
2023-02-09T16:49:36.258Z,43.20
2023-02-09T16:52:18.102Z,41.30
2023-02-09T16:54:47.081Z,43.20
2023-02-09T16:57:15.900Z,42.60
2023-02-09T16:59:43.222Z,45.40
2023-02-09T17:02:34.835Z,48.80
2023-02-09T17:05:07.615Z,49.30
2023-02-09T17:07:45.356Z,54.90
2023-02-09T17:10:23.336Z,52.00
2023-02-09T17:12:52.608Z,53.90
2023-02-09T17:15:31.782Z,52.90
2023-02-09T17:18:03.541Z,50.90
2023-02-09T17:20:35.733Z,50.70
2023-02-09T17:23:03.405Z,47.50
2023-02-09T17:25:31.122Z,51.50
2023-02-09T17:27:58.267Z,55.10
2023-02-09T17:30:25.204Z,57.60
2023-02-09T17:32:59.599Z,62.60
2023-02-09T17:36:23.902Z,55.30
2023-02-09T17:38:42.613Z,52.40
2023-02-09T17:41:32.993Z,48.50
2023-02-09T17:44:19.598Z,45.90
2023-02-09T17:46:51.008Z,54.30
2023-02-09T17:49:17.986Z,59.50
2023-02-09T17:51:45.628Z,63.20
2023-02-09T17:54:13.849Z,65.80
2023-02-09T17:56:41.933Z,60.90
2023-02-09T17:59:09.206Z,66.60
2023-02-09T18:01:43.807Z,68.30
2023-02-09T18:04:21.963Z,77.00
2023-02-09T18:06:49.020Z,90.10
2023-02-09T18:09:16.083Z,99.00
2023-02-09T18:11:56.063Z,80.50
2023-02-09T18:14:30.347Z,77.40
2023-02-09T18:17:01.265Z,80.00
2023-02-09T18:19:29.123Z,80.10
2023-02-09T18:22:01.236Z,75.30
2023-02-09T18:24:31.725Z,78.00
2023-02-09T18:27:01.430Z,81.20
2023-02-09T18:29:29.710Z,77.40
2023-02-09T18:32:00.345Z,62.30
2023-02-09T18:34:30.496Z,57.60
2023-02-09T18:36:57.517Z,51.00
2023-02-09T18:39:24.809Z,48.60
2023-02-09T18:41:55.455Z,47.60
2023-02-09T18:44:27.957Z,48.00
2023-02-09T18:46:56.698Z,45.60
2023-02-09T18:49:23.570Z,43.30
2023-02-09T18:51:51.557Z,38.90
2023-02-09T18:54:18.790Z,39.20
2023-02-09T18:56:45.612Z,42.60
2023-02-09T18:59:13.050Z,47.90
2023-02-09T19:01:40.389Z,48.80
2023-02-09T19:04:07.648Z,48.30
2023-02-09T19:06:35.005Z,50.20
2023-02-09T19:09:03.001Z,52.40
2023-02-09T19:11:30.282Z,55.00
2023-02-09T19:14:15.810Z,56.70
2023-02-09T19:16:42.770Z,53.70
2023-02-09T19:19:12.808Z,53.90
2023-02-09T19:21:40.076Z,52.10
2023-02-09T19:24:07.158Z,53.10
2023-02-09T19:26:34.021Z,57.40
2023-02-09T19:29:01.203Z,66.40
2023-02-09T19:31:30.310Z,72.20
2023-02-09T19:33:57.229Z,69.60
2023-02-09T19:36:27.269Z,64.30
2023-02-09T19:38:55.238Z,60.00
2023-02-09T19:41:23.165Z,55.30
2023-02-09T19:43:53.929Z,49.70
2023-02-09T19:46:21.279Z,47.90
2023-02-09T19:48:49.032Z,44.50
2023-02-09T19:51:15.859Z,44.70
2023-02-09T19:53:46.612Z,42.60
2023-02-09T19:56:16.363Z,44.50
2023-02-09T19:58:43.879Z,46.10
2023-02-09T20:01:11.572Z,50.90
2023-02-09T20:03:39.049Z,53.10
2023-02-09T20:06:08.915Z,51.40
2023-02-09T20:08:37.632Z,47.10
2023-02-09T20:11:14.891Z,41.70
2023-02-09T20:13:42.272Z,41.50
2023-02-09T20:16:12.708Z,43.60
2023-02-09T20:18:40.157Z,42.70
2023-02-09T20:21:10.244Z,42.20
2023-02-09T20:23:38.734Z,40.70
2023-02-09T20:26:18.006Z,43.60
2023-02-09T20:28:45.154Z,40.70
2023-02-09T20:31:15.027Z,39.90
2023-02-09T20:33:43.179Z,39.50
2023-02-09T20:36:13.137Z,37.20
2023-02-09T20:38:40.091Z,38.60
2023-02-09T20:41:11.433Z,41.00
2023-02-09T20:43:57.710Z,41.80
2023-02-09T20:46:45.175Z,38.30
2023-02-09T20:49:13.299Z,38.90
2023-02-09T20:51:40.341Z,39.40
2023-02-09T20:54:07.497Z,37.00
2023-02-09T20:56:38.008Z,36.40
2023-02-09T20:59:06.128Z,35.60
2023-02-09T21:01:38.731Z,37.80
2023-02-09T21:04:06.921Z,37.40
2023-02-09T21:06:36.415Z,36.70
2023-02-09T21:09:05.070Z,39.40
2023-02-09T21:11:34.277Z,39.00
2023-02-09T21:14:01.595Z,41.70
2023-02-09T21:16:30.217Z,41.40
2023-02-09T21:18:58.444Z,39.40
2023-02-09T21:21:26.457Z,37.20
2023-02-09T21:23:53.388Z,37.60
2023-02-09T21:26:23.954Z,40.10
2023-02-09T21:28:56.803Z,38.20
2023-02-09T21:31:26.182Z,38.00
2023-02-09T21:33:55.232Z,40.00
2023-02-09T21:36:22.580Z,38.90
2023-02-09T21:38:49.961Z,37.90
2023-02-09T21:41:39.565Z,39.50
2023-02-09T21:44:11.966Z,37.30
2023-02-09T21:46:38.874Z,38.10
2023-02-09T21:49:06.894Z,37.90
2023-02-09T21:51:35.966Z,38.60
2023-02-09T21:54:03.243Z,35.90
2023-02-09T21:56:30.085Z,36.10
2023-02-09T21:58:56.929Z,33.60
2023-02-09T22:01:24.144Z,32.70
2023-02-09T22:03:56.501Z,32.30
2023-02-09T22:06:24.674Z,32.70
2023-02-09T22:08:51.901Z,30.40
2023-02-09T22:11:19.217Z,31.30
2023-02-09T22:13:46.476Z,30.70
2023-02-09T22:16:17.459Z,31.30
2023-02-09T22:18:44.199Z,28.60
2023-02-09T22:21:10.943Z,27.70
2023-02-09T22:23:37.862Z,27.50
2023-02-09T22:26:05.178Z,28.00
2023-02-09T22:28:36.150Z,28.10
2023-02-09T22:31:29.006Z,27.50
2023-02-09T22:33:57.931Z,26.90
2023-02-09T22:36:25.177Z,26.70
2023-02-09T22:38:51.854Z,26.10
2023-02-09T22:41:20.767Z,25.90
2023-02-09T22:44:01.709Z,26.20
2023-02-09T22:46:35.628Z,24.90
2023-02-09T22:49:07.276Z,25.70
2023-02-09T22:51:34.789Z,25.20
2023-02-09T22:54:01.894Z,19.20
2023-02-09T22:56:29.295Z,25.30
2023-02-09T22:58:57.270Z,24.00
2023-02-09T23:01:24.093Z,24.20
2023-02-09T23:03:50.931Z,23.40
2023-02-09T23:06:19.477Z,21.60
2023-02-09T23:08:46.588Z,21.90
2023-02-09T23:11:14.980Z,21.90
2023-02-09T23:13:42.353Z,20.90
2023-02-09T23:16:17.302Z,21.90
2023-02-09T23:18:49.116Z,21.50
2023-02-09T23:21:15.875Z,22.40
2023-02-09T23:23:42.704Z,22.70
2023-02-09T23:26:09.600Z,25.40
2023-02-09T23:28:36.554Z,24.50
2023-02-09T23:31:07.676Z,24.70
2023-02-09T23:33:35.244Z,27.50
2023-02-09T23:36:04.459Z,26.90
2023-02-09T23:38:31.188Z,26.20
2023-02-09T23:40:57.938Z,25.10
2023-02-09T23:43:25.518Z,23.90
2023-02-09T23:45:52.904Z,25.70
2023-02-09T23:48:20.557Z,27.20
2023-02-09T23:50:47.735Z,27.20
2023-02-09T23:53:14.524Z,27.00
2023-02-09T23:55:41.966Z,22.60
2023-02-09T23:58:09.398Z,25.00
